SIK0965 LIBC-LIRQ
Flight info
| Callsign | SIK0965 |
|---|---|
| Flight time | 1h 28m |
| Altitude | 43000 |
| Route | CDC DCT SOR DCT TEA DCT IBRID |
| Aircraft | HDJT/L-SABDGRWY/H |
Departure
| Time | 2026-04-21 16:50 |
|---|---|
| Airport | Crotone Sant'Anna Pythagoras Airport (LIBC) |
Arrival
| Time | 2026-04-21 18:19 |
|---|---|
| Airport | Florence Airport, Peretola (LIRQ) |
| Time | Latitude | Longitude | Altitude | Speed | Heading |
|---|---|---|---|---|---|
| 2026-04-21 16:26 | 38.99649 | 17.07710 | 525 ft | 0 kts | 304° |
| 2026-04-21 16:35 | 38.99643 | 17.07723 | 525 ft | 3 kts | 291° |
| 2026-04-21 16:35 | 38.99640 | 17.07745 | 524 ft | 3 kts | 248° |
| 2026-04-21 16:35 | 38.99648 | 17.07767 | 524 ft | 3 kts | 260° |
| 2026-04-21 16:35 | 38.99645 | 17.07787 | 523 ft | 3 kts | 309° |
| 2026-04-21 16:36 | 38.99649 | 17.07796 | 523 ft | 3 kts | 24° |
| 2026-04-21 16:36 | 38.99664 | 17.07804 | 523 ft | 3 kts | 3° |
| 2026-04-21 16:36 | 38.99670 | 17.07796 | 523 ft | 1 kts | 309° |
| 2026-04-21 16:36 | 38.99661 | 17.07810 | 523 ft | 3 kts | 318° |
| 2026-04-21 16:37 | 38.99645 | 17.07826 | 522 ft | 3 kts | 319° |
| 2026-04-21 16:37 | 38.99635 | 17.07839 | 522 ft | 1 kts | 309° |
| 2026-04-21 16:37 | 38.99632 | 17.07843 | 521 ft | 0 kts | 309° |
| 2026-04-21 16:41 | 38.99633 | 17.07842 | 521 ft | 2 kts | 308° |
| 2026-04-21 16:42 | 38.99604 | 17.07828 | 521 ft | 12 kts | 170° |
| 2026-04-21 16:42 | 38.99494 | 17.07856 | 521 ft | 18 kts | 168° |
| 2026-04-21 16:42 | 38.99405 | 17.07918 | 521 ft | 16 kts | 130° |
| 2026-04-21 16:42 | 38.99367 | 17.07977 | 520 ft | 2 kts | 130° |
| 2026-04-21 16:43 | 38.99352 | 17.08000 | 520 ft | 6 kts | 130° |
| 2026-04-21 16:43 | 38.99336 | 17.08025 | 521 ft | 0 kts | 129° |
| 2026-04-21 16:43 | 38.99320 | 17.08049 | 521 ft | 11 kts | 130° |
| 2026-04-21 16:43 | 38.99235 | 17.08146 | 524 ft | 20 kts | 163° |
| 2026-04-21 16:44 | 38.99111 | 17.08178 | 523 ft | 16 kts | 169° |
| 2026-04-21 16:44 | 38.98996 | 17.08207 | 523 ft | 16 kts | 169° |
| 2026-04-21 16:44 | 38.98941 | 17.08215 | 522 ft | 12 kts | 186° |
| 2026-04-21 16:44 | 38.98870 | 17.08200 | 519 ft | 12 kts | 168° |
| 2026-04-21 16:45 | 38.98884 | 17.08245 | 520 ft | 11 kts | 331° |
| 2026-04-21 16:45 | 38.98957 | 17.08218 | 522 ft | 13 kts | 349° |
| 2026-04-21 16:45 | 38.99082 | 17.08185 | 523 ft | 24 kts | 349° |
| 2026-04-21 16:45 | 38.99269 | 17.08139 | 523 ft | 29 kts | 348° |
| 2026-04-21 16:46 | 38.99478 | 17.08086 | 520 ft | 32 kts | 349° |
| 2026-04-21 16:46 | 38.99664 | 17.08038 | 519 ft | 27 kts | 349° |
| 2026-04-21 16:46 | 38.99859 | 17.07990 | 519 ft | 29 kts | 349° |
| 2026-04-21 16:46 | 39.00059 | 17.07939 | 522 ft | 30 kts | 349° |
| 2026-04-21 16:47 | 39.00266 | 17.07887 | 524 ft | 31 kts | 349° |
| 2026-04-21 16:47 | 39.00416 | 17.07850 | 524 ft | 20 kts | 349° |
| 2026-04-21 16:47 | 39.00508 | 17.07840 | 526 ft | 10 kts | 304° |
| 2026-04-21 16:47 | 39.00561 | 17.07762 | 525 ft | 13 kts | 335° |
| 2026-04-21 16:48 | 39.00569 | 17.07810 | 526 ft | 11 kts | 169° |
| 2026-04-21 16:48 | 39.00557 | 17.07813 | 526 ft | 0 kts | 168° |
| 2026-04-21 16:48 | 39.00549 | 17.07816 | 526 ft | 7 kts | 168° |
| 2026-04-21 16:49 | 39.00535 | 17.07820 | 526 ft | 0 kts | 167° |
| 2026-04-21 16:49 | 39.00503 | 17.07828 | 526 ft | 25 kts | 168° |
| 2026-04-21 16:49 | 39.00020 | 17.07948 | 522 ft | 114 kts | 168° |
| 2026-04-21 16:50 | 38.99106 | 17.08211 | 954 ft | 135 kts | 166° |
| 2026-04-21 16:50 | 38.98154 | 17.08569 | 1454 ft | 151 kts | 173° |
| 2026-04-21 16:50 | 38.97028 | 17.08754 | 1871 ft | 176 kts | 178° |
| 2026-04-21 16:50 | 38.95750 | 17.09014 | 2432 ft | 196 kts | 173° |
| 2026-04-21 16:51 | 38.94356 | 17.09372 | 3025 ft | 211 kts | 173° |
| 2026-04-21 16:51 | 38.92868 | 17.09702 | 3676 ft | 221 kts | 183° |
| 2026-04-21 16:51 | 38.91402 | 17.09175 | 4380 ft | 224 kts | 217° |
| 2026-04-21 16:51 | 38.90430 | 17.07672 | 5102 ft | 226 kts | 250° |
| 2026-04-21 16:52 | 38.90135 | 17.05675 | 5878 ft | 231 kts | 265° |
| 2026-04-21 16:52 | 38.89897 | 17.03583 | 6669 ft | 237 kts | 259° |
| 2026-04-21 16:52 | 38.89474 | 17.01515 | 7470 ft | 242 kts | 255° |
| 2026-04-21 16:52 | 38.89015 | 16.99460 | 8297 ft | 243 kts | 261° |
| 2026-04-21 16:53 | 38.89126 | 16.97319 | 9173 ft | 244 kts | 290° |
| 2026-04-21 16:53 | 38.90031 | 16.95469 | 10062 ft | 247 kts | 309° |
| 2026-04-21 16:53 | 38.91215 | 16.93863 | 10925 ft | 248 kts | 310° |
| 2026-04-21 16:53 | 38.92368 | 16.92224 | 11818 ft | 247 kts | 308° |
| 2026-04-21 16:54 | 38.93471 | 16.90539 | 12741 ft | 246 kts | 307° |
| 2026-04-21 16:54 | 38.94574 | 16.88866 | 13692 ft | 245 kts | 308° |
| 2026-04-21 16:54 | 38.95682 | 16.87211 | 14608 ft | 244 kts | 308° |
| 2026-04-21 16:54 | 38.96783 | 16.85563 | 15465 ft | 243 kts | 308° |
| 2026-04-21 16:55 | 38.97882 | 16.83914 | 16340 ft | 243 kts | 308° |
| 2026-04-21 16:55 | 38.98980 | 16.82266 | 17221 ft | 242 kts | 309° |
| 2026-04-21 16:55 | 39.00075 | 16.80621 | 18116 ft | 242 kts | 309° |
| 2026-04-21 16:55 | 39.01169 | 16.78977 | 18899 ft | 242 kts | 309° |
| 2026-04-21 16:56 | 39.02263 | 16.77331 | 19680 ft | 242 kts | 309° |
| 2026-04-21 16:56 | 39.03355 | 16.75688 | 20511 ft | 242 kts | 309° |
| 2026-04-21 16:56 | 39.04447 | 16.74045 | 21339 ft | 242 kts | 309° |
| 2026-04-21 16:56 | 39.05538 | 16.72403 | 22146 ft | 242 kts | 309° |
| 2026-04-21 16:57 | 39.06630 | 16.70758 | 23002 ft | 241 kts | 309° |
| 2026-04-21 16:57 | 39.07718 | 16.69118 | 23806 ft | 240 kts | 309° |
| 2026-04-21 16:57 | 39.08798 | 16.67488 | 24524 ft | 238 kts | 309° |
| 2026-04-21 16:57 | 39.09870 | 16.65870 | 25268 ft | 236 kts | 309° |
| 2026-04-21 16:58 | 39.10931 | 16.64269 | 26002 ft | 234 kts | 309° |
| 2026-04-21 16:58 | 39.11981 | 16.62683 | 26745 ft | 231 kts | 308° |
| 2026-04-21 16:58 | 39.13018 | 16.61116 | 27468 ft | 229 kts | 308° |
| 2026-04-21 16:58 | 39.14043 | 16.59566 | 28190 ft | 226 kts | 308° |
| 2026-04-21 16:59 | 39.15055 | 16.58036 | 28897 ft | 223 kts | 308° |
| 2026-04-21 16:59 | 39.16053 | 16.56525 | 29598 ft | 220 kts | 307° |
| 2026-04-21 16:59 | 39.17040 | 16.55029 | 30253 ft | 218 kts | 308° |
| 2026-04-21 16:59 | 39.18016 | 16.53551 | 30813 ft | 215 kts | 308° |
| 2026-04-21 17:00 | 39.18980 | 16.52091 | 31374 ft | 213 kts | 308° |
| 2026-04-21 17:00 | 39.19935 | 16.50644 | 31910 ft | 211 kts | 308° |
| 2026-04-21 17:00 | 39.20560 | 16.49695 | 32257 ft | 209 kts | 308° |
| 2026-04-21 17:00 | 39.21812 | 16.47794 | 32961 ft | 206 kts | 307° |
| 2026-04-21 17:01 | 39.22737 | 16.46390 | 33461 ft | 205 kts | 307° |
| 2026-04-21 17:01 | 39.23655 | 16.44995 | 33938 ft | 203 kts | 308° |
| 2026-04-21 17:01 | 39.24566 | 16.43610 | 34341 ft | 202 kts | 307° |
| 2026-04-21 17:01 | 39.25472 | 16.42233 | 34715 ft | 201 kts | 307° |
| 2026-04-21 17:02 | 39.26377 | 16.40857 | 35079 ft | 201 kts | 307° |
| 2026-04-21 17:02 | 39.27269 | 16.39498 | 35423 ft | 201 kts | 307° |
| 2026-04-21 17:02 | 39.28176 | 16.38118 | 35760 ft | 202 kts | 307° |
| 2026-04-21 17:02 | 39.29084 | 16.36733 | 36082 ft | 203 kts | 307° |
| 2026-04-21 17:03 | 39.29998 | 16.35342 | 36392 ft | 204 kts | 307° |
| 2026-04-21 17:03 | 39.30915 | 16.33942 | 36710 ft | 204 kts | 307° |
| 2026-04-21 17:03 | 39.31837 | 16.32538 | 37040 ft | 205 kts | 307° |
| 2026-04-21 17:03 | 39.32761 | 16.31129 | 37339 ft | 206 kts | 307° |
| 2026-04-21 17:04 | 39.33688 | 16.29713 | 37636 ft | 207 kts | 307° |
| 2026-04-21 17:04 | 39.34619 | 16.28291 | 37930 ft | 208 kts | 307° |
| 2026-04-21 17:04 | 39.35554 | 16.26861 | 38203 ft | 209 kts | 307° |
| 2026-04-21 17:04 | 39.36495 | 16.25423 | 38471 ft | 210 kts | 307° |
| 2026-04-21 17:05 | 39.37441 | 16.23978 | 38724 ft | 211 kts | 307° |
| 2026-04-21 17:05 | 39.38391 | 16.22524 | 38909 ft | 212 kts | 307° |
| 2026-04-21 17:05 | 39.39345 | 16.21063 | 39105 ft | 213 kts | 307° |
| 2026-04-21 17:05 | 39.40304 | 16.19596 | 39288 ft | 214 kts | 307° |
| 2026-04-21 17:06 | 39.41265 | 16.18123 | 39479 ft | 215 kts | 307° |
| 2026-04-21 17:06 | 39.42229 | 16.16646 | 39675 ft | 215 kts | 307° |
| 2026-04-21 17:06 | 39.43197 | 16.15160 | 39858 ft | 216 kts | 307° |
| 2026-04-21 17:06 | 39.44167 | 16.13672 | 40041 ft | 217 kts | 307° |
| 2026-04-21 17:07 | 39.45140 | 16.12178 | 40214 ft | 218 kts | 306° |
| 2026-04-21 17:07 | 39.46117 | 16.10678 | 40362 ft | 218 kts | 306° |
| 2026-04-21 17:07 | 39.47096 | 16.09174 | 40491 ft | 219 kts | 306° |
| 2026-04-21 17:07 | 39.48078 | 16.07662 | 40641 ft | 220 kts | 306° |
| 2026-04-21 17:08 | 39.49063 | 16.06149 | 40775 ft | 220 kts | 306° |
| 2026-04-21 17:08 | 39.50051 | 16.04631 | 40947 ft | 221 kts | 306° |
| 2026-04-21 17:08 | 39.51040 | 16.03109 | 41140 ft | 221 kts | 306° |
| 2026-04-21 17:08 | 39.52030 | 16.01583 | 41322 ft | 222 kts | 306° |
| 2026-04-21 17:09 | 39.54020 | 15.98515 | 41658 ft | 223 kts | 306° |
| 2026-04-21 17:09 | 39.55020 | 15.96974 | 41821 ft | 224 kts | 306° |
| 2026-04-21 17:09 | 39.56021 | 15.95428 | 41977 ft | 224 kts | 306° |
| 2026-04-21 17:10 | 39.57025 | 15.93877 | 42133 ft | 225 kts | 306° |
| 2026-04-21 17:10 | 39.58034 | 15.92319 | 42288 ft | 226 kts | 306° |
| 2026-04-21 17:10 | 39.59045 | 15.90756 | 42449 ft | 227 kts | 306° |
| 2026-04-21 17:10 | 39.60060 | 15.89187 | 42604 ft | 227 kts | 306° |
| 2026-04-21 17:11 | 39.61078 | 15.87612 | 42750 ft | 228 kts | 306° |
| 2026-04-21 17:11 | 39.62098 | 15.86034 | 42898 ft | 229 kts | 306° |
| 2026-04-21 17:11 | 39.63125 | 15.84444 | 42982 ft | 232 kts | 306° |
| 2026-04-21 17:11 | 39.64173 | 15.82816 | 42987 ft | 238 kts | 306° |
| 2026-04-21 17:12 | 39.65235 | 15.81171 | 42972 ft | 244 kts | 306° |
| 2026-04-21 17:12 | 39.66338 | 15.79459 | 42971 ft | 250 kts | 306° |
| 2026-04-21 17:12 | 39.67470 | 15.77703 | 42966 ft | 257 kts | 306° |
| 2026-04-21 17:12 | 39.68628 | 15.75906 | 42967 ft | 263 kts | 306° |
| 2026-04-21 17:13 | 39.69814 | 15.74063 | 42968 ft | 269 kts | 306° |
| 2026-04-21 17:13 | 39.71027 | 15.72177 | 42966 ft | 275 kts | 306° |
| 2026-04-21 17:13 | 39.72265 | 15.70251 | 42964 ft | 281 kts | 307° |
| 2026-04-21 17:13 | 39.73530 | 15.68283 | 42962 ft | 287 kts | 307° |
| 2026-04-21 17:14 | 39.74819 | 15.66275 | 42958 ft | 292 kts | 307° |
| 2026-04-21 17:14 | 39.76131 | 15.64231 | 42960 ft | 297 kts | 307° |
| 2026-04-21 17:14 | 39.78822 | 15.60032 | 42957 ft | 307 kts | 307° |
| 2026-04-21 17:15 | 39.81596 | 15.55699 | 42957 ft | 316 kts | 307° |
| 2026-04-21 17:15 | 39.84441 | 15.51249 | 42957 ft | 324 kts | 307° |
| 2026-04-21 17:16 | 39.87347 | 15.46695 | 42954 ft | 330 kts | 307° |
| 2026-04-21 17:16 | 39.90305 | 15.42054 | 42952 ft | 336 kts | 307° |
| 2026-04-21 17:17 | 39.93309 | 15.37335 | 42948 ft | 341 kts | 307° |
| 2026-04-21 17:17 | 39.96351 | 15.32548 | 42940 ft | 345 kts | 307° |
| 2026-04-21 17:18 | 39.99421 | 15.27709 | 42939 ft | 348 kts | 307° |
| 2026-04-21 17:18 | 40.02497 | 15.22853 | 42938 ft | 351 kts | 307° |
| 2026-04-21 17:19 | 40.05613 | 15.17926 | 42935 ft | 353 kts | 307° |
| 2026-04-21 17:19 | 40.08746 | 15.12965 | 42935 ft | 355 kts | 307° |
| 2026-04-21 17:20 | 40.11892 | 15.07975 | 42932 ft | 357 kts | 307° |
| 2026-04-21 17:20 | 40.15049 | 15.02959 | 42937 ft | 358 kts | 307° |
| 2026-04-21 17:21 | 40.18217 | 14.97918 | 42933 ft | 359 kts | 307° |
| 2026-04-21 17:21 | 40.21392 | 14.92858 | 42939 ft | 360 kts | 307° |
| 2026-04-21 17:22 | 40.24571 | 14.87783 | 42933 ft | 361 kts | 307° |
| 2026-04-21 17:22 | 40.27752 | 14.82696 | 42932 ft | 361 kts | 307° |
| 2026-04-21 17:23 | 40.30935 | 14.77597 | 42930 ft | 362 kts | 307° |
| 2026-04-21 17:23 | 40.34117 | 14.72492 | 42929 ft | 362 kts | 307° |
| 2026-04-21 17:24 | 40.37299 | 14.67378 | 42928 ft | 362 kts | 307° |
| 2026-04-21 17:24 | 40.40482 | 14.62255 | 42928 ft | 362 kts | 307° |
| 2026-04-21 17:25 | 40.43664 | 14.57124 | 42933 ft | 363 kts | 307° |
| 2026-04-21 17:25 | 40.46845 | 14.51987 | 42935 ft | 363 kts | 307° |
| 2026-04-21 17:26 | 40.50024 | 14.46844 | 42939 ft | 362 kts | 307° |
| 2026-04-21 17:26 | 40.53200 | 14.41697 | 42942 ft | 362 kts | 306° |
| 2026-04-21 17:27 | 40.56443 | 14.36621 | 42947 ft | 364 kts | 313° |
| 2026-04-21 17:27 | 40.60485 | 14.32617 | 42940 ft | 371 kts | 327° |
| 2026-04-21 17:28 | 40.65285 | 14.29965 | 42943 ft | 375 kts | 334° |
| 2026-04-21 17:28 | 40.70157 | 14.27480 | 42946 ft | 376 kts | 334° |
| 2026-04-21 17:29 | 40.75038 | 14.25016 | 42939 ft | 376 kts | 334° |
| 2026-04-21 17:29 | 40.79916 | 14.22538 | 42948 ft | 376 kts | 334° |
| 2026-04-21 17:30 | 40.84795 | 14.20060 | 42941 ft | 376 kts | 334° |
| 2026-04-21 17:30 | 40.89676 | 14.17576 | 42948 ft | 376 kts | 334° |
| 2026-04-21 17:31 | 40.94563 | 14.15085 | 42944 ft | 377 kts | 334° |
| 2026-04-21 17:31 | 40.99451 | 14.12589 | 42948 ft | 377 kts | 334° |
| 2026-04-21 17:32 | 41.04338 | 14.10090 | 42948 ft | 376 kts | 334° |
| 2026-04-21 17:32 | 41.08398 | 14.08011 | 42948 ft | 376 kts | 334° |
| 2026-04-21 17:33 | 41.13282 | 14.05506 | 42947 ft | 377 kts | 334° |
| 2026-04-21 17:33 | 41.18171 | 14.02995 | 42948 ft | 377 kts | 334° |
| 2026-04-21 17:34 | 41.23055 | 14.00482 | 42952 ft | 376 kts | 334° |
| 2026-04-21 17:34 | 41.27921 | 13.97934 | 42948 ft | 374 kts | 330° |
| 2026-04-21 17:35 | 41.32225 | 13.94229 | 42942 ft | 366 kts | 316° |
| 2026-04-21 17:35 | 41.36125 | 13.89854 | 42950 ft | 367 kts | 316° |
| 2026-04-21 17:36 | 41.40013 | 13.85507 | 42947 ft | 367 kts | 316° |
| 2026-04-21 17:36 | 41.43918 | 13.81119 | 42947 ft | 367 kts | 316° |
| 2026-04-21 17:37 | 41.47826 | 13.76728 | 42948 ft | 367 kts | 316° |
| 2026-04-21 17:37 | 41.51730 | 13.72332 | 42949 ft | 367 kts | 316° |
| 2026-04-21 17:38 | 41.55633 | 13.67932 | 42942 ft | 367 kts | 316° |
| 2026-04-21 17:38 | 41.59525 | 13.63533 | 42954 ft | 366 kts | 316° |
| 2026-04-21 17:39 | 41.63419 | 13.59127 | 42930 ft | 367 kts | 316° |
| 2026-04-21 17:39 | 41.67313 | 13.54714 | 42928 ft | 367 kts | 316° |
| 2026-04-21 17:40 | 41.71139 | 13.50379 | 42929 ft | 337 kts | 316° |
| 2026-04-21 17:40 | 41.72865 | 13.48423 | 42925 ft | 322 kts | 316° |
| 2026-04-21 17:40 | 41.74576 | 13.46461 | 42928 ft | 326 kts | 315° |
| 2026-04-21 17:41 | 41.78078 | 13.42472 | 42925 ft | 334 kts | 316° |
| 2026-04-21 17:41 | 41.81654 | 13.38396 | 42922 ft | 340 kts | 316° |
| 2026-04-21 17:42 | 41.85285 | 13.34249 | 42933 ft | 346 kts | 316° |
| 2026-04-21 17:42 | 41.88967 | 13.30035 | 42929 ft | 349 kts | 316° |
| 2026-04-21 17:43 | 41.92640 | 13.25832 | 42944 ft | 351 kts | 316° |
| 2026-04-21 17:43 | 41.96362 | 13.21556 | 42950 ft | 352 kts | 315° |
| 2026-04-21 17:44 | 42.00124 | 13.17236 | 42964 ft | 355 kts | 316° |
| 2026-04-21 17:44 | 42.03888 | 13.12900 | 42963 ft | 358 kts | 316° |
| 2026-04-21 17:45 | 42.07656 | 13.08557 | 42962 ft | 360 kts | 316° |
| 2026-04-21 17:45 | 42.11466 | 13.04155 | 42970 ft | 362 kts | 316° |
| 2026-04-21 17:46 | 42.15314 | 12.99705 | 42956 ft | 362 kts | 316° |
| 2026-04-21 17:46 | 42.19113 | 12.95303 | 42956 ft | 363 kts | 316° |
| 2026-04-21 17:47 | 42.22944 | 12.90856 | 42957 ft | 363 kts | 316° |
| 2026-04-21 17:47 | 42.26807 | 12.86364 | 42656 ft | 364 kts | 316° |
| 2026-04-21 17:48 | 42.28075 | 12.84890 | 42387 ft | 362 kts | 316° |
| 2026-04-21 17:48 | 42.30611 | 12.81936 | 41890 ft | 359 kts | 315° |
| 2026-04-21 17:48 | 42.32500 | 12.79732 | 41500 ft | 358 kts | 315° |
| 2026-04-21 17:48 | 42.34380 | 12.77538 | 41124 ft | 357 kts | 315° |
| 2026-04-21 17:49 | 42.36254 | 12.75350 | 40735 ft | 355 kts | 315° |
| 2026-04-21 17:49 | 42.38115 | 12.73174 | 40365 ft | 353 kts | 315° |
| 2026-04-21 17:49 | 42.39973 | 12.71000 | 40008 ft | 353 kts | 315° |
| 2026-04-21 17:49 | 42.41827 | 12.68829 | 39653 ft | 352 kts | 315° |
| 2026-04-21 17:50 | 42.43675 | 12.66665 | 39303 ft | 351 kts | 315° |
| 2026-04-21 17:50 | 42.45515 | 12.64508 | 38959 ft | 350 kts | 315° |
| 2026-04-21 17:50 | 42.47351 | 12.62352 | 38608 ft | 348 kts | 315° |
| 2026-04-21 17:50 | 42.49156 | 12.60231 | 38189 ft | 348 kts | 315° |
| 2026-04-21 17:51 | 42.51008 | 12.58056 | 37767 ft | 348 kts | 315° |
| 2026-04-21 17:51 | 42.52834 | 12.55907 | 37351 ft | 347 kts | 315° |
| 2026-04-21 17:51 | 42.54658 | 12.53759 | 36966 ft | 347 kts | 315° |
| 2026-04-21 17:51 | 42.56483 | 12.51607 | 36567 ft | 348 kts | 315° |
| 2026-04-21 17:52 | 42.58284 | 12.49484 | 36178 ft | 348 kts | 315° |
| 2026-04-21 17:52 | 42.60113 | 12.47326 | 35787 ft | 348 kts | 315° |
| 2026-04-21 17:52 | 42.61940 | 12.45168 | 35406 ft | 348 kts | 315° |
| 2026-04-21 17:52 | 42.63791 | 12.42979 | 35027 ft | 348 kts | 315° |
| 2026-04-21 17:53 | 42.65595 | 12.40845 | 34665 ft | 349 kts | 315° |
| 2026-04-21 17:53 | 42.67420 | 12.38684 | 34299 ft | 348 kts | 315° |
| 2026-04-21 17:53 | 42.69242 | 12.36524 | 33941 ft | 348 kts | 315° |
| 2026-04-21 17:53 | 42.71066 | 12.34361 | 33522 ft | 348 kts | 315° |
| 2026-04-21 17:54 | 42.72894 | 12.32190 | 33109 ft | 350 kts | 315° |
| 2026-04-21 17:54 | 42.74731 | 12.30009 | 32703 ft | 351 kts | 315° |
| 2026-04-21 17:54 | 42.76576 | 12.27816 | 32303 ft | 353 kts | 315° |
| 2026-04-21 17:54 | 42.78426 | 12.25615 | 31925 ft | 354 kts | 315° |
| 2026-04-21 17:55 | 42.80284 | 12.23401 | 31539 ft | 356 kts | 315° |
| 2026-04-21 17:55 | 42.82147 | 12.21180 | 31152 ft | 357 kts | 315° |
| 2026-04-21 17:55 | 42.84018 | 12.18949 | 30777 ft | 358 kts | 315° |
| 2026-04-21 17:55 | 42.85894 | 12.16709 | 30408 ft | 359 kts | 315° |
| 2026-04-21 17:56 | 42.87776 | 12.14461 | 30033 ft | 360 kts | 315° |
| 2026-04-21 17:56 | 42.89663 | 12.12204 | 29609 ft | 361 kts | 315° |
| 2026-04-21 17:56 | 42.91555 | 12.09940 | 29208 ft | 362 kts | 315° |
| 2026-04-21 17:56 | 42.93452 | 12.07668 | 28803 ft | 363 kts | 315° |
| 2026-04-21 17:57 | 42.95349 | 12.05393 | 28352 ft | 363 kts | 315° |
| 2026-04-21 17:57 | 42.97237 | 12.03129 | 27877 ft | 360 kts | 315° |
| 2026-04-21 17:57 | 42.99108 | 12.00882 | 27432 ft | 357 kts | 315° |
| 2026-04-21 17:57 | 43.00963 | 11.98653 | 27016 ft | 352 kts | 315° |
| 2026-04-21 17:58 | 43.02788 | 11.96457 | 26574 ft | 348 kts | 315° |
| 2026-04-21 17:58 | 43.04597 | 11.94279 | 26146 ft | 345 kts | 315° |
| 2026-04-21 17:58 | 43.06393 | 11.92114 | 25720 ft | 343 kts | 315° |
| 2026-04-21 17:58 | 43.08175 | 11.89966 | 25302 ft | 341 kts | 315° |
| 2026-04-21 17:59 | 43.09945 | 11.87829 | 24887 ft | 338 kts | 315° |
| 2026-04-21 17:59 | 43.11703 | 11.85706 | 24480 ft | 336 kts | 315° |
| 2026-04-21 17:59 | 43.13450 | 11.83594 | 24079 ft | 334 kts | 315° |
| 2026-04-21 17:59 | 43.15182 | 11.81499 | 23684 ft | 332 kts | 315° |
| 2026-04-21 18:00 | 43.16882 | 11.79440 | 23252 ft | 329 kts | 315° |
| 2026-04-21 18:00 | 43.18593 | 11.77366 | 22789 ft | 328 kts | 315° |
| 2026-04-21 18:00 | 43.20296 | 11.75302 | 22333 ft | 326 kts | 315° |
| 2026-04-21 18:00 | 43.21991 | 11.73246 | 21878 ft | 324 kts | 315° |
| 2026-04-21 18:01 | 43.23673 | 11.71202 | 21460 ft | 322 kts | 315° |
| 2026-04-21 18:01 | 43.25344 | 11.69171 | 21028 ft | 320 kts | 315° |
| 2026-04-21 18:01 | 43.27006 | 11.67150 | 20589 ft | 319 kts | 315° |
| 2026-04-21 18:01 | 43.28662 | 11.65134 | 20162 ft | 317 kts | 315° |
| 2026-04-21 18:02 | 43.30309 | 11.63126 | 19745 ft | 316 kts | 315° |
| 2026-04-21 18:02 | 43.31950 | 11.61127 | 19336 ft | 315 kts | 315° |
| 2026-04-21 18:02 | 43.33584 | 11.59132 | 18925 ft | 314 kts | 315° |
| 2026-04-21 18:02 | 43.35215 | 11.57140 | 18526 ft | 313 kts | 315° |
| 2026-04-21 18:03 | 43.36843 | 11.55152 | 18116 ft | 313 kts | 315° |
| 2026-04-21 18:03 | 43.38464 | 11.53171 | 17657 ft | 311 kts | 315° |
| 2026-04-21 18:03 | 43.40075 | 11.51199 | 17208 ft | 309 kts | 315° |
| 2026-04-21 18:03 | 43.41676 | 11.49238 | 16762 ft | 308 kts | 315° |
| 2026-04-21 18:04 | 43.43264 | 11.47293 | 16321 ft | 300 kts | 315° |
| 2026-04-21 18:04 | 43.44782 | 11.45435 | 15888 ft | 285 kts | 315° |
| 2026-04-21 18:04 | 43.46238 | 11.43649 | 15484 ft | 277 kts | 315° |
| 2026-04-21 18:04 | 43.47673 | 11.41868 | 15062 ft | 278 kts | 314° |
| 2026-04-21 18:05 | 43.48963 | 11.39902 | 14650 ft | 276 kts | 309° |
| 2026-04-21 18:05 | 43.50227 | 11.37922 | 14241 ft | 275 kts | 310° |
| 2026-04-21 18:05 | 43.51500 | 11.35968 | 13952 ft | 273 kts | 310° |
| 2026-04-21 18:05 | 43.52761 | 11.34011 | 13952 ft | 274 kts | 310° |
| 2026-04-21 18:06 | 43.54020 | 11.32044 | 13945 ft | 274 kts | 310° |
| 2026-04-21 18:06 | 43.55281 | 11.30073 | 13751 ft | 274 kts | 310° |
| 2026-04-21 18:06 | 43.56539 | 11.28106 | 13403 ft | 273 kts | 310° |
| 2026-04-21 18:06 | 43.57794 | 11.26146 | 13057 ft | 272 kts | 310° |
| 2026-04-21 18:07 | 43.59045 | 11.24187 | 12705 ft | 272 kts | 310° |
| 2026-04-21 18:07 | 43.60095 | 11.22149 | 12368 ft | 257 kts | 299° |
| 2026-04-21 18:07 | 43.60809 | 11.19955 | 11928 ft | 247 kts | 290° |
| 2026-04-21 18:07 | 43.61208 | 11.17673 | 11449 ft | 244 kts | 280° |
| 2026-04-21 18:08 | 43.61301 | 11.15354 | 10979 ft | 241 kts | 271° |
| 2026-04-21 18:08 | 43.61092 | 11.13064 | 10514 ft | 241 kts | 261° |
| 2026-04-21 18:08 | 43.60592 | 11.10865 | 10041 ft | 241 kts | 251° |
| 2026-04-21 18:08 | 43.59812 | 11.08818 | 9411 ft | 235 kts | 240° |
| 2026-04-21 18:09 | 43.58801 | 11.07027 | 8762 ft | 242 kts | 231° |
| 2026-04-21 18:09 | 43.57651 | 11.05296 | 8096 ft | 247 kts | 231° |
| 2026-04-21 18:09 | 43.56902 | 11.04138 | 7615 ft | 231 kts | 231° |
| 2026-04-21 18:09 | 43.55501 | 11.01966 | 6683 ft | 228 kts | 230° |
| 2026-04-21 18:10 | 43.54445 | 11.00343 | 5967 ft | 227 kts | 230° |
| 2026-04-21 18:10 | 43.53508 | 10.98640 | 5237 ft | 226 kts | 248° |
| 2026-04-21 18:10 | 43.53321 | 10.96533 | 4808 ft | 220 kts | 283° |
| 2026-04-21 18:10 | 43.54006 | 10.94728 | 4506 ft | 212 kts | 315° |
| 2026-04-21 18:11 | 43.55194 | 10.93599 | 4197 ft | 206 kts | 339° |
| 2026-04-21 18:11 | 43.56581 | 10.93301 | 3902 ft | 202 kts | 5° |
| 2026-04-21 18:11 | 43.57917 | 10.93816 | 3602 ft | 199 kts | 22° |
| 2026-04-21 18:11 | 43.59196 | 10.94534 | 3315 ft | 197 kts | 21° |
| 2026-04-21 18:12 | 43.60486 | 10.95171 | 3013 ft | 197 kts | 19° |
| 2026-04-21 18:12 | 43.61760 | 10.95773 | 3014 ft | 191 kts | 19° |
| 2026-04-21 18:12 | 43.63028 | 10.96383 | 3000 ft | 194 kts | 20° |
| 2026-04-21 18:12 | 43.64296 | 10.96995 | 3002 ft | 192 kts | 20° |
| 2026-04-21 18:13 | 43.65559 | 10.97605 | 2997 ft | 193 kts | 20° |
| 2026-04-21 18:13 | 43.66776 | 10.98348 | 2993 ft | 189 kts | 38° |
| 2026-04-21 18:13 | 43.67591 | 10.99709 | 2994 ft | 183 kts | 52° |
| 2026-04-21 18:13 | 43.68402 | 11.01047 | 2997 ft | 176 kts | 49° |
| 2026-04-21 18:14 | 43.69905 | 11.03361 | 2999 ft | 152 kts | 47° |
| 2026-04-21 18:14 | 43.70605 | 11.04442 | 2997 ft | 151 kts | 47° |
| 2026-04-21 18:14 | 43.71314 | 11.05538 | 2844 ft | 153 kts | 47° |
| 2026-04-21 18:15 | 43.72019 | 11.06628 | 2651 ft | 152 kts | 47° |
| 2026-04-21 18:15 | 43.72720 | 11.07710 | 2451 ft | 150 kts | 47° |
| 2026-04-21 18:15 | 43.73416 | 11.08784 | 2239 ft | 149 kts | 48° |
| 2026-04-21 18:15 | 43.74105 | 11.09851 | 2043 ft | 148 kts | 48° |
| 2026-04-21 18:16 | 43.74797 | 11.10919 | 1845 ft | 150 kts | 48° |
| 2026-04-21 18:16 | 43.75489 | 11.11990 | 1646 ft | 148 kts | 49° |
| 2026-04-21 18:16 | 43.76170 | 11.13043 | 1437 ft | 141 kts | 48° |
| 2026-04-21 18:16 | 43.76768 | 11.13967 | 1262 ft | 123 kts | 48° |
| 2026-04-21 18:17 | 43.77316 | 11.14813 | 1101 ft | 114 kts | 49° |
| 2026-04-21 18:17 | 43.77853 | 11.15643 | 946 ft | 120 kts | 49° |
| 2026-04-21 18:17 | 43.78413 | 11.16507 | 790 ft | 121 kts | 49° |
| 2026-04-21 18:17 | 43.78970 | 11.17375 | 667 ft | 118 kts | 51° |
| 2026-04-21 18:18 | 43.79526 | 11.18216 | 458 ft | 117 kts | 51° |
| 2026-04-21 18:18 | 43.80052 | 11.19022 | 280 ft | 108 kts | 51° |
| 2026-04-21 18:18 | 43.80529 | 11.19774 | 140 ft | 99 kts | 51° |
| 2026-04-21 18:18 | 43.80930 | 11.20373 | 129 ft | 68 kts | 62° |
| 2026-04-21 18:19 | 43.81160 | 11.20752 | 133 ft | 32 kts | 48° |
| 2026-04-21 18:19 | 43.81249 | 11.20890 | 139 ft | 14 kts | 55° |
| 2026-04-21 18:19 | 43.81264 | 11.21023 | 142 ft | 15 kts | 94° |
| 2026-04-21 18:19 | 43.81258 | 11.21156 | 143 ft | 6 kts | 93° |
| 2026-04-21 18:20 | 43.81264 | 11.21227 | 143 ft | 9 kts | 54° |
| 2026-04-21 18:20 | 43.81311 | 11.21300 | 145 ft | 11 kts | 47° |
| 2026-04-21 18:20 | 43.81375 | 11.21381 | 145 ft | 14 kts | 16° |
| 2026-04-21 18:20 | 43.81428 | 11.21372 | 145 ft | 0 kts | 342° |
| 2026-04-21 18:23 | 43.81440 | 11.21367 | 144 ft | 8 kts | 342° |
| 2026-04-21 18:23 | 43.81521 | 11.21351 | 143 ft | 0 kts | 10° |
| 2026-04-21 18:23 | 43.81544 | 11.21357 | 143 ft | 4 kts | 10° |
| 2026-04-21 18:23 | 43.81545 | 11.21357 | 143 ft | 0 kts | 10° |